sensor_id;sensor_type;location;lat;lon;timestamp;pressure;altitude;pressure_sealevel;temperature;humidity
69926;BME280;57217;47.286;8.530;2022-07-10T00:06:17;95936.16;;;17.98;56.88
69926;BME280;57217;47.286;8.530;2022-07-10T00:36:19;95926.78;;;17.73;59.61
69926;BME280;57217;47.286;8.530;2022-07-10T01:06:21;95914.81;;;17.62;57.20
69926;BME280;57217;47.286;8.530;2022-07-10T01:36:24;95898.00;;;17.45;57.64
69926;BME280;57217;47.286;8.530;2022-07-10T02:06:27;95900.97;;;17.31;59.60
69926;BME280;57217;47.286;8.530;2022-07-10T02:36:29;95921.81;;;17.19;61.22
69926;BME280;57217;47.286;8.530;2022-07-10T03:06:32;95912.03;;;17.13;58.55
69926;BME280;57217;47.286;8.530;2022-07-10T03:36:34;95926.19;;;16.94;59.70
69926;BME280;57217;47.286;8.530;2022-07-10T04:06:37;95913.44;;;16.81;60.06
69926;BME280;57217;47.286;8.530;2022-07-10T04:36:42;95905.19;;;17.12;61.20
69926;BME280;57217;47.286;8.530;2022-07-10T05:06:44;95926.13;;;17.69;61.41
69926;BME280;57217;47.286;8.530;2022-07-10T05:36:46;95933.38;;;19.46;56.07
69926;BME280;57217;47.286;8.530;2022-07-10T06:06:50;95939.28;;;19.66;56.31
69926;BME280;57217;47.286;8.530;2022-07-10T06:36:54;95937.78;;;18.98;58.13
69926;BME280;57217;47.286;8.530;2022-07-10T07:06:57;95945.75;;;20.29;54.44
69926;BME280;57217;47.286;8.530;2022-07-10T07:37:00;95929.94;;;21.62;51.73
69926;BME280;57217;47.286;8.530;2022-07-10T08:07:04;95934.31;;;21.38;51.91
69926;BME280;57217;47.286;8.530;2022-07-10T08:37:06;95926.91;;;23.28;47.51
69926;BME280;57217;47.286;8.530;2022-07-10T09:07:09;95910.41;;;24.25;44.72
69926;BME280;57217;47.286;8.530;2022-07-10T09:37:22;95914.41;;;25.86;41.98
69926;BME280;57217;47.286;8.530;2022-07-10T10:07:24;95907.31;;;25.89;40.83
69926;BME280;57217;47.286;8.530;2022-07-10T10:37:36;95884.16;;;26.28;40.08
69926;BME280;57217;47.286;8.530;2022-07-10T11:07:54;95879.16;;;26.21;39.72
69926;BME280;57217;47.286;8.530;2022-07-10T11:37:57;95849.72;;;28.46;36.26
69926;BME280;57217;47.286;8.530;2022-07-10T12:08:00;95836.63;;;28.55;35.40
69926;BME280;57217;47.286;8.530;2022-07-10T12:38:02;95834.22;;;27.50;34.99
69926;BME280;57217;47.286;8.530;2022-07-10T13:08:13;95817.25;;;27.60;34.42
69926;BME280;57217;47.286;8.530;2022-07-10T13:38:21;95814.97;;;27.96;33.36
69926;BME280;57217;47.286;8.530;2022-07-10T14:08:25;95808.22;;;29.29;30.89
69926;BME280;57217;47.286;8.530;2022-07-10T14:38:27;95781.31;;;40.06;18.10
69926;BME280;57217;47.286;8.530;2022-07-10T15:08:30;95770.56;;;39.76;16.56
69926;BME280;57217;47.286;8.530;2022-07-10T15:38:36;95775.34;;;35.67;21.15
69926;BME280;57217;47.286;8.530;2022-07-10T16:08:38;95760.81;;;33.39;22.92
69926;BME280;57217;47.286;8.530;2022-07-10T16:38:40;95751.69;;;32.59;24.98
69926;BME280;57217;47.286;8.530;2022-07-10T17:08:43;95758.38;;;31.89;26.59
69926;BME280;57217;47.286;8.530;2022-07-10T17:38:48;95781.94;;;26.86;34.28
69926;BME280;57217;47.286;8.530;2022-07-10T18:08:52;95783.81;;;25.21;37.41
69926;BME280;57217;47.286;8.530;2022-07-10T18:38:54;95823.56;;;23.55;40.76
69926;BME280;57217;47.286;8.530;2022-07-10T19:08:57;95853.81;;;22.11;43.32
69926;BME280;57217;47.286;8.530;2022-07-10T19:39:00;95916.16;;;20.98;45.22
69926;BME280;57217;47.286;8.530;2022-07-10T20:09:03;95943.88;;;19.91;45.10
69926;BME280;57217;47.286;8.530;2022-07-10T20:39:05;95950.59;;;19.20;43.54
69926;BME280;57217;47.286;8.530;2022-07-10T21:09:07;95957.66;;;18.56;44.88
69926;BME280;57217;47.286;8.530;2022-07-10T21:39:14;95975.84;;;17.83;46.89
69926;BME280;57217;47.286;8.530;2022-07-10T22:09:17;95984.03;;;17.40;47.75
69926;BME280;57217;47.286;8.530;2022-07-10T22:39:19;95967.94;;;17.04;49.26
69926;BME280;57217;47.286;8.530;2022-07-10T23:09:22;95944.34;;;16.59;50.17
69926;BME280;57217;47.286;8.530;2022-07-10T23:39:25;95928.72;;;16.38;49.95
